Terminal Aerodrome Forecast
Issued by NWS Bismarck, ND

Home | Current Version | Previous Version | Graphics & Text | Print | Product List | Glossary On
Versions: 1 2 3 4 5 6 7 8 9 10 11 12 13
000
FTUS43 KBIS 222338
TAFISN
TAF
KISN 222338Z 2300/2324 14007KT P6SM SCT100
     FM231200 11007KT P6SM SCT080 BKN150
     FM231800 11012KT P6SM BKN080 OVC150=

USA.gov is the U.S. government's official web portal to all federal, state and local government web resources and services.